KMKG

Muskegon County Airport

Muskegon, Michigan, USA
KMKG 191140Z 1912/2012 05010KT 1 1/2SM -SN OVC014 FM191700 04011G17KT 4SM -SN OVC019 FM191900 04013KT P6SM OVC025 FM200000 03012KT P6SM OVC030
Issued Valid From Valid To
Jan-19 @ 11:40 UTC
(6 hours ago)
Jan-19 @ 12:00 UTC
(5 hours ago)
Jan-20 @ 12:00 UTC
(in 19 hours)
Expired Click to View Jan-19 @ 12:00 to Jan-19 @ 17:00
KMKG 191140Z 1912/2012 05010KT 1 1/2SM -SN OVC014
Wind Visibility Clouds Conditions
50° at 10 knots 1 1/2 miles
  • Overcast at 1,400' AGL
  • Light Snow
From Jan-19 @ 17:00 to Jan-19 @ 19:00
FM191700 04011G17KT 4SM -SN OVC019
Wind Visibility Clouds Conditions
40° at 11 knots
 Gusting to 17 knots
4 miles
  • Overcast at 1,900' AGL
  • Light Snow
From Jan-19 @ 19:00 to Jan-20 @ 00:00
FM191900 04013KT P6SM OVC025
Wind Visibility Clouds
40° at 13 knots Greater than 6 miles
  • Overcast at 2,500' AGL
From Jan-20 @ 00:00 to Jan-20 @ 12:00
FM200000 03012KT P6SM OVC030
Wind Visibility Clouds
30° at 12 knots Greater than 6 miles
  • Overcast at 3,000' AGL
KMKG 191140Z 1912/2012 05010KT 1 1/2SM -SN OVC014 FM191700 04011G17KT 4SM -SN OVC019 FM191900 04013KT P6SM OVC025 FM200000 03012KT P6SM OVC030
Issued Jan-19 @ 11:40 UTC
(6 hours ago)
Valid From Jan-19 @ 12:00 UTC
(5 hours ago)
Valid To Jan-20 @ 12:00 UTC
(in 19 hours)
Jan-19 @ 12:00 - Jan-19 @ 17:00
Wind Visibility
50° at 10 knots 1 1/2 miles
Clouds
  • Overcast at 1,400' AGL
Conditions
  • Light Snow
From Jan-19 @ 17:00 - Jan-19 @ 19:00
Wind Visibility
40° at 11 knots
 Gusting to 17 knots
4 miles
Clouds
  • Overcast at 1,900' AGL
Conditions
  • Light Snow
From Jan-19 @ 19:00 - Jan-20 @ 00:00
Wind Visibility
40° at 13 knots Greater than 6 miles
Clouds
  • Overcast at 2,500' AGL
From Jan-20 @ 00:00 - Jan-20 @ 12:00
Wind Visibility
30° at 12 knots Greater than 6 miles
Clouds
  • Overcast at 3,000' AGL